createdAt,value
2022-12-08T00:01:30.686Z,52.81
2022-12-08T00:04:03.649Z,53.27
2022-12-08T00:06:40.322Z,53.40
2022-12-08T00:09:18.152Z,53.34
2022-12-08T00:11:45.341Z,53.53
2022-12-08T00:14:12.496Z,53.24
2022-12-08T00:16:40.032Z,53.22
2022-12-08T00:19:07.263Z,53.17
2022-12-08T00:21:34.556Z,52.74
2022-12-08T00:24:01.768Z,53.53
2022-12-08T00:26:29.003Z,53.63
2022-12-08T00:28:56.231Z,53.69
2022-12-08T00:31:23.452Z,53.20
2022-12-08T00:33:51.008Z,53.61
2022-12-08T00:36:18.259Z,53.25
2022-12-08T00:38:45.459Z,53.24
2022-12-08T00:41:22.281Z,52.93
2022-12-08T00:43:49.549Z,53.42
2022-12-08T00:46:16.922Z,53.03
2022-12-08T00:48:44.185Z,52.91
2022-12-08T00:51:11.338Z,52.81
2022-12-08T00:53:38.525Z,52.74
2022-12-08T00:56:05.893Z,52.55
2022-12-08T00:58:33.139Z,52.63
2022-12-08T01:01:00.349Z,52.57
2022-12-08T01:03:27.592Z,52.61
2022-12-08T01:05:54.774Z,52.72
2022-12-08T01:08:22.006Z,52.66
2022-12-08T01:10:49.285Z,52.55
2022-12-08T01:13:16.481Z,52.73
2022-12-08T01:15:43.651Z,52.96
2022-12-08T01:18:10.865Z,53.04
2022-12-08T01:20:38.058Z,53.02
2022-12-08T01:23:05.331Z,53.22
2022-12-08T01:25:34.896Z,53.15
2022-12-08T01:28:02.086Z,53.57
2022-12-08T01:30:29.399Z,53.00
2022-12-08T01:32:56.860Z,53.02
2022-12-08T01:35:24.191Z,53.04
2022-12-08T01:37:52.501Z,52.84
2022-12-08T01:40:19.740Z,53.25
2022-12-08T01:42:47.007Z,53.08
2022-12-08T01:45:35.980Z,53.08
2022-12-08T01:48:15.915Z,52.75
2022-12-08T01:50:44.176Z,52.81
2022-12-08T01:53:26.719Z,52.83
2022-12-08T01:56:03.449Z,53.18
2022-12-08T01:58:39.958Z,53.08
2022-12-08T02:01:07.525Z,52.96
2022-12-08T02:03:47.507Z,52.88
2022-12-08T02:06:17.613Z,53.27
2022-12-08T02:08:47.617Z,53.20
2022-12-08T02:11:14.841Z,53.35
2022-12-08T02:13:46.277Z,53.51
2022-12-08T02:17:04.396Z,53.15
2022-12-08T02:20:08.390Z,53.00
2022-12-08T02:23:13.278Z,53.29
2022-12-08T02:26:44.374Z,53.56
2022-12-08T02:29:45.577Z,54.22
2022-12-08T02:32:52.967Z,53.77
2022-12-08T02:35:39.882Z,54.15
2022-12-08T02:38:33.040Z,53.73
2022-12-08T02:41:28.079Z,53.56
2022-12-08T02:44:12.580Z,53.35
2022-12-08T02:46:55.733Z,53.66
2022-12-08T02:49:35.777Z,53.72
2022-12-08T02:52:29.564Z,53.31
2022-12-08T02:55:09.382Z,53.62
2022-12-08T02:58:00.982Z,53.38
2022-12-08T03:00:39.669Z,53.48
2022-12-08T03:03:44.892Z,53.01
2022-12-08T03:06:39.513Z,53.40
2022-12-08T03:09:36.200Z,53.01
2022-12-08T03:12:31.785Z,53.06
2022-12-08T03:15:08.091Z,52.91
2022-12-08T03:17:38.663Z,52.98
2022-12-08T03:20:12.975Z,52.87
2022-12-08T03:22:43.885Z,52.87
2022-12-08T03:25:15.472Z,52.97
2022-12-08T03:27:43.938Z,52.58
2022-12-08T03:30:11.825Z,52.84
2022-12-08T03:32:42.038Z,52.81
2022-12-08T03:35:16.430Z,53.01
2022-12-08T03:37:44.409Z,53.26
2022-12-08T03:40:17.831Z,53.50
2022-12-08T03:42:45.115Z,53.28
2022-12-08T03:45:12.679Z,52.44
2022-12-08T03:47:39.949Z,52.82
2022-12-08T03:50:07.936Z,52.65
2022-12-08T03:52:35.113Z,52.83
2022-12-08T03:55:02.626Z,53.22
2022-12-08T03:57:29.921Z,53.10
2022-12-08T03:59:57.334Z,53.26
2022-12-08T04:02:24.572Z,53.21
2022-12-08T04:04:51.857Z,53.28
2022-12-08T04:07:19.377Z,53.73
2022-12-08T04:09:46.567Z,53.30
2022-12-08T04:12:13.772Z,53.28
2022-12-08T04:14:40.986Z,53.20
2022-12-08T04:17:08.160Z,53.48
2022-12-08T04:19:35.387Z,53.89
2022-12-08T04:22:02.656Z,53.45
2022-12-08T04:24:29.947Z,53.31
2022-12-08T04:26:57.288Z,52.50
2022-12-08T04:29:24.650Z,52.78
2022-12-08T04:31:51.999Z,52.96
2022-12-08T04:34:19.750Z,52.32
2022-12-08T04:36:47.316Z,52.71
2022-12-08T04:39:14.617Z,53.07
2022-12-08T04:41:41.831Z,52.84
2022-12-08T04:44:08.985Z,52.99
2022-12-08T04:46:41.671Z,52.68
2022-12-08T04:49:12.730Z,52.86
2022-12-08T04:51:40.300Z,52.95
2022-12-08T04:54:08.443Z,53.74
2022-12-08T04:56:37.399Z,53.86
2022-12-08T04:59:05.176Z,53.98
2022-12-08T05:01:32.626Z,53.47
2022-12-08T05:03:59.990Z,53.67
2022-12-08T05:06:27.203Z,53.37
2022-12-08T05:08:56.822Z,53.28
2022-12-08T05:11:24.033Z,52.94
2022-12-08T05:13:51.366Z,53.38
2022-12-08T05:16:18.742Z,53.58
2022-12-08T05:18:46.072Z,53.83
2022-12-08T05:21:13.292Z,53.90
2022-12-08T05:23:40.555Z,53.92
2022-12-08T05:26:07.924Z,54.25
2022-12-08T05:28:43.493Z,54.25
2022-12-08T05:31:17.143Z,53.81
2022-12-08T05:33:45.304Z,54.19
2022-12-08T05:36:15.258Z,53.74
2022-12-08T05:38:43.350Z,53.75
2022-12-08T05:41:19.016Z,54.04
2022-12-08T05:43:47.405Z,53.76
2022-12-08T05:46:15.707Z,53.57
2022-12-08T05:48:43.195Z,53.72
2022-12-08T05:51:23.472Z,53.93
2022-12-08T05:53:53.185Z,53.15
2022-12-08T05:56:21.433Z,52.71
2022-12-08T05:58:48.651Z,52.92
2022-12-08T06:01:27.573Z,53.25
2022-12-08T06:03:57.044Z,52.72
2022-12-08T06:06:24.789Z,53.03
2022-12-08T06:08:52.775Z,53.21
2022-12-08T06:11:28.196Z,52.70
2022-12-08T06:13:56.765Z,53.08
2022-12-08T06:16:27.012Z,53.14
2022-12-08T06:18:54.649Z,52.63
2022-12-08T06:21:22.039Z,53.19
2022-12-08T06:23:52.882Z,53.66
2022-12-08T06:26:21.213Z,53.29
2022-12-08T06:28:50.045Z,52.92
2022-12-08T06:31:26.134Z,52.88
2022-12-08T06:33:55.329Z,52.88
2022-12-08T06:36:26.786Z,53.10
2022-12-08T06:38:54.523Z,53.82
2022-12-08T06:41:22.530Z,53.56
2022-12-08T06:43:50.454Z,53.62
2022-12-08T06:46:20.034Z,53.58
2022-12-08T06:48:47.736Z,53.75
2022-12-08T06:51:21.460Z,53.73
2022-12-08T06:53:48.736Z,53.31
2022-12-08T06:56:16.902Z,53.30
2022-12-08T06:58:50.444Z,53.45
2022-12-08T07:01:20.187Z,53.07
2022-12-08T07:03:47.647Z,53.13
2022-12-08T07:06:19.556Z,52.79
2022-12-08T07:08:46.946Z,53.05
2022-12-08T07:11:20.931Z,53.61
2022-12-08T07:13:49.933Z,53.40
2022-12-08T07:16:20.127Z,53.19
2022-12-08T07:18:48.080Z,52.93
2022-12-08T07:21:17.441Z,53.23
2022-12-08T07:23:54.393Z,53.69
2022-12-08T07:26:24.974Z,53.56
2022-12-08T07:28:52.186Z,53.54
2022-12-08T07:31:25.357Z,53.92
2022-12-08T07:33:53.194Z,53.52
2022-12-08T07:36:21.348Z,53.82
2022-12-08T07:38:49.966Z,54.07
2022-12-08T07:41:23.469Z,53.71
2022-12-08T07:43:54.072Z,54.31
2022-12-08T07:46:24.024Z,54.22
2022-12-08T07:48:53.269Z,54.67
2022-12-08T07:51:22.232Z,53.83
2022-12-08T07:53:54.632Z,54.70
2022-12-08T07:56:23.277Z,54.77
2022-12-08T07:58:50.777Z,54.84
2022-12-08T08:01:30.943Z,55.10
2022-12-08T08:04:01.332Z,55.01
2022-12-08T08:06:29.023Z,55.26
2022-12-08T08:08:56.576Z,54.93
2022-12-08T08:11:24.117Z,55.12
2022-12-08T08:13:52.493Z,54.77
2022-12-08T08:16:20.591Z,54.86
2022-12-08T08:18:50.586Z,54.80
2022-12-08T08:24:07.952Z,55.10
2022-12-08T08:26:38.657Z,55.49
2022-12-08T08:29:06.913Z,55.40
2022-12-08T08:31:34.478Z,55.02
2022-12-08T08:34:02.949Z,56.13
2022-12-08T08:36:30.343Z,56.42
2022-12-08T08:38:57.676Z,56.25
2022-12-08T08:41:27.163Z,56.42
2022-12-08T08:43:56.072Z,56.73
2022-12-08T08:46:23.589Z,56.65
2022-12-08T08:48:50.930Z,56.46
2022-12-08T08:51:18.399Z,56.37
2022-12-08T08:53:45.938Z,56.08
2022-12-08T08:56:17.715Z,55.78
2022-12-08T08:58:46.861Z,56.44
2022-12-08T09:01:24.860Z,56.50
2022-12-08T09:03:52.892Z,56.44
2022-12-08T09:06:20.706Z,56.18
2022-12-08T09:08:48.713Z,56.21
2022-12-08T09:11:16.944Z,56.90
2022-12-08T09:13:44.359Z,56.94
2022-12-08T09:16:12.410Z,57.35
2022-12-08T09:18:39.668Z,57.18
2022-12-08T09:21:14.039Z,57.45
2022-12-08T09:23:41.317Z,57.63
2022-12-08T09:26:09.051Z,57.93
2022-12-08T09:28:36.342Z,58.05
2022-12-08T09:31:04.437Z,57.76
2022-12-08T09:33:31.797Z,57.52
2022-12-08T09:36:04.225Z,57.75
2022-12-08T09:38:32.285Z,58.00
2022-12-08T09:41:02.432Z,58.15
2022-12-08T09:43:57.369Z,58.20
2022-12-08T09:46:31.326Z,58.60
2022-12-08T09:49:01.764Z,58.31
2022-12-08T09:51:40.475Z,57.90
2022-12-08T09:54:22.467Z,57.73
2022-12-08T09:56:53.909Z,57.97
2022-12-08T09:59:27.118Z,58.26
2022-12-08T10:01:55.599Z,58.83
2022-12-08T10:04:30.002Z,58.82
2022-12-08T10:07:12.583Z,58.95
2022-12-08T10:10:29.384Z,58.71
2022-12-08T10:13:35.457Z,58.53
2022-12-08T10:16:38.844Z,58.71
2022-12-08T10:19:20.169Z,58.70
2022-12-08T10:21:48.286Z,58.71
2022-12-08T10:24:44.288Z,58.71
2022-12-08T10:27:12.888Z,58.92
2022-12-08T10:29:41.158Z,58.63
2022-12-08T10:32:21.623Z,58.86
2022-12-08T10:35:08.641Z,58.84
2022-12-08T10:37:36.518Z,58.95
2022-12-08T10:40:18.472Z,59.07
2022-12-08T10:42:56.690Z,58.98
2022-12-08T10:45:33.372Z,59.09
2022-12-08T10:48:05.698Z,58.91
2022-12-08T10:50:58.156Z,59.11
2022-12-08T10:53:31.318Z,59.44
2022-12-08T10:56:01.538Z,59.53
2022-12-08T10:58:42.827Z,59.77
2022-12-08T11:01:21.423Z,59.67
2022-12-08T11:04:00.757Z,59.64
2022-12-08T11:06:35.748Z,59.77
2022-12-08T11:09:24.680Z,60.02
2022-12-08T11:12:06.100Z,60.38
2022-12-08T11:14:49.790Z,61.04
2022-12-08T11:17:23.301Z,60.97
2022-12-08T11:20:01.549Z,60.45
2022-12-08T11:22:37.893Z,59.83
2022-12-08T11:25:08.232Z,59.26
2022-12-08T11:27:42.146Z,58.85
2022-12-08T11:30:31.191Z,58.09
2022-12-08T11:33:12.059Z,57.95
2022-12-08T11:35:44.872Z,57.05
2022-12-08T11:38:22.510Z,56.37
2022-12-08T11:41:00.237Z,55.10
2022-12-08T11:43:50.909Z,55.40
2022-12-08T11:46:46.803Z,53.58
2022-12-08T11:49:15.489Z,53.56
2022-12-08T11:52:20.965Z,53.86
2022-12-08T11:55:35.230Z,54.46
2022-12-08T11:58:41.833Z,54.92
2022-12-08T12:01:22.942Z,55.77
2022-12-08T12:04:24.342Z,56.28
2022-12-08T12:07:00.166Z,56.79
2022-12-08T12:10:07.592Z,57.11
2022-12-08T12:12:50.119Z,57.01
2022-12-08T12:15:57.413Z,57.41
2022-12-08T12:18:52.362Z,57.54
2022-12-08T12:21:39.861Z,57.73
2022-12-08T12:24:26.757Z,58.06
2022-12-08T12:27:21.051Z,58.26
2022-12-08T12:29:56.261Z,58.71
2022-12-08T12:32:25.804Z,58.73
2022-12-08T12:34:52.985Z,58.68
2022-12-08T12:37:35.372Z,58.68
2022-12-08T12:40:24.033Z,58.44
2022-12-08T12:42:56.986Z,58.56
2022-12-08T12:45:33.688Z,58.37
2022-12-08T12:48:01.191Z,58.49
2022-12-08T12:50:34.586Z,58.69
2022-12-08T12:53:13.969Z,58.40
2022-12-08T12:56:00.557Z,58.69
2022-12-08T12:58:30.830Z,58.79
2022-12-08T13:01:13.150Z,58.68
2022-12-08T13:03:51.839Z,58.91
2022-12-08T13:06:35.718Z,58.86
2022-12-08T13:09:04.148Z,58.86
2022-12-08T13:11:50.168Z,58.75
2022-12-08T13:14:44.675Z,58.77
2022-12-08T13:17:20.886Z,58.78
2022-12-08T13:19:59.773Z,58.99
2022-12-08T13:23:11.154Z,58.95
2022-12-08T13:25:44.196Z,59.01
2022-12-08T13:28:30.792Z,58.78
2022-12-08T13:31:02.703Z,58.90
2022-12-08T13:33:41.324Z,58.86
2022-12-08T13:36:25.915Z,59.32
2022-12-08T13:38:59.909Z,59.37
2022-12-08T13:41:38.210Z,59.09
2022-12-08T13:47:33.379Z,59.62
2022-12-08T13:59:32.287Z,59.34
2022-12-08T14:02:16.603Z,59.75
2022-12-08T14:05:17.311Z,59.71
2022-12-08T14:07:35.568Z,59.43
2022-12-08T14:10:07.428Z,59.55
2022-12-08T14:12:34.807Z,59.26
2022-12-08T14:15:07.001Z,59.31
2022-12-08T14:17:34.793Z,59.32
2022-12-08T14:20:28.529Z,59.38
2022-12-08T14:22:57.101Z,58.96
2022-12-08T14:25:26.983Z,59.18
2022-12-08T14:28:01.728Z,59.41
2022-12-08T14:30:32.846Z,59.00
2022-12-08T14:33:03.366Z,59.12
2022-12-08T14:35:39.078Z,59.11
2022-12-08T14:38:12.188Z,59.23
2022-12-08T14:40:43.200Z,59.30
2022-12-08T14:43:10.423Z,59.25
2022-12-08T14:45:40.641Z,58.83
2022-12-08T14:48:35.887Z,58.84
2022-12-08T14:51:20.570Z,58.81
2022-12-08T14:54:10.118Z,58.74
2022-12-08T14:56:42.252Z,58.75
2022-12-08T14:59:41.518Z,58.86
2022-12-08T15:02:16.668Z,58.68
2022-12-08T15:04:48.463Z,59.18
2022-12-08T15:07:23.865Z,58.82
2022-12-08T15:10:17.111Z,58.68
2022-12-08T15:13:09.261Z,58.37
2022-12-08T15:15:55.832Z,58.58
2022-12-08T15:18:39.052Z,58.58
2022-12-08T15:21:10.336Z,58.43
2022-12-08T15:23:45.739Z,58.25
2022-12-08T15:26:24.309Z,58.46
2022-12-08T15:28:51.961Z,57.99
2022-12-08T15:31:19.514Z,58.46
2022-12-08T15:33:47.048Z,58.06
2022-12-08T15:36:14.178Z,58.09
2022-12-08T15:38:42.977Z,58.05
2022-12-08T15:41:14.626Z,58.30
2022-12-08T15:43:42.609Z,58.66
2022-12-08T15:46:10.139Z,58.75
2022-12-08T15:48:37.970Z,58.18
2022-12-08T15:51:05.204Z,57.99
2022-12-08T15:53:32.438Z,58.13
2022-12-08T15:58:56.130Z,57.81
2022-12-08T16:01:24.484Z,58.07
2022-12-08T16:09:42.099Z,57.79
2022-12-08T16:12:22.305Z,57.92
2022-12-08T16:17:39.095Z,57.96
2022-12-08T16:20:15.852Z,58.28
2022-12-08T16:23:13.163Z,58.03
2022-12-08T16:25:46.037Z,58.25
2022-12-08T16:28:52.145Z,58.31
2022-12-08T16:31:11.729Z,58.31
2022-12-08T16:33:41.593Z,57.97
2022-12-08T16:36:10.278Z,58.12
2022-12-08T16:38:37.419Z,57.91
2022-12-08T16:41:04.807Z,57.61
2022-12-08T16:43:35.851Z,57.53
2022-12-08T16:46:03.836Z,57.90
2022-12-08T16:48:31.270Z,58.23
2022-12-08T16:50:58.496Z,58.65
2022-12-08T16:53:25.737Z,58.61
2022-12-08T16:55:52.962Z,58.84
2022-12-08T16:58:20.207Z,58.57
2022-12-08T17:00:47.598Z,58.34
2022-12-08T17:03:16.139Z,57.51
2022-12-08T17:05:44.117Z,57.49
2022-12-08T17:08:11.640Z,57.41
2022-12-08T17:10:40.266Z,57.23
2022-12-08T17:13:08.483Z,58.00
2022-12-08T17:15:35.690Z,57.95
2022-12-08T17:18:03.563Z,57.81
2022-12-08T17:20:31.071Z,58.31
2022-12-08T17:22:58.869Z,58.19
2022-12-08T17:25:27.393Z,58.38
2022-12-08T17:27:55.068Z,57.81
2022-12-08T17:30:22.484Z,57.69
2022-12-08T17:32:50.457Z,57.78
2022-12-08T17:35:17.972Z,57.53
2022-12-08T17:37:45.986Z,57.60
2022-12-08T17:40:13.786Z,57.34
2022-12-08T17:42:41.038Z,57.46
2022-12-08T17:45:09.423Z,57.39
2022-12-08T17:47:37.491Z,57.10
2022-12-08T17:50:06.809Z,57.33
2022-12-08T17:52:34.434Z,57.26
2022-12-08T17:55:02.125Z,57.21
2022-12-08T17:57:29.312Z,57.11
2022-12-08T17:59:56.589Z,57.33
2022-12-08T18:02:23.836Z,57.32
2022-12-08T18:04:51.140Z,57.59
2022-12-08T18:07:18.339Z,57.56
2022-12-08T18:09:45.695Z,57.24
2022-12-08T18:12:12.990Z,57.66
2022-12-08T18:14:40.156Z,56.98
2022-12-08T18:17:10.630Z,56.39
2022-12-08T18:19:38.013Z,56.09
2022-12-08T18:22:05.383Z,56.54
2022-12-08T18:24:32.789Z,56.20
2022-12-08T18:26:59.985Z,56.46
2022-12-08T18:29:28.294Z,56.18
2022-12-08T18:31:56.229Z,56.20
2022-12-08T18:34:23.708Z,55.90
2022-12-08T18:36:51.325Z,55.79
2022-12-08T18:39:28.508Z,55.82
2022-12-08T18:42:00.153Z,56.10
2022-12-08T18:44:27.530Z,55.96
2022-12-08T18:46:54.795Z,56.03
2022-12-08T18:49:22.099Z,56.01
2022-12-08T18:51:49.322Z,55.97
2022-12-08T18:54:16.844Z,56.46
2022-12-08T18:56:44.511Z,56.23
2022-12-08T18:59:13.283Z,55.92
2022-12-08T19:01:41.321Z,56.39
2022-12-08T19:06:57.751Z,56.34
2022-12-08T19:09:25.572Z,56.63
2022-12-08T19:11:54.426Z,56.50
2022-12-08T19:14:27.903Z,56.74
2022-12-08T19:16:57.658Z,56.17
2022-12-08T19:19:27.154Z,56.70
2022-12-08T19:21:55.079Z,56.79
2022-12-08T19:24:22.809Z,57.70
2022-12-08T19:26:50.441Z,57.78
2022-12-08T19:29:21.090Z,57.56
2022-12-08T19:31:48.505Z,58.00
2022-12-08T19:34:16.022Z,57.99
2022-12-08T19:36:43.306Z,57.73
2022-12-08T19:39:23.195Z,57.57
2022-12-08T19:41:51.395Z,57.39
2022-12-08T19:44:29.240Z,57.56
2022-12-08T19:46:56.520Z,57.18
2022-12-08T19:49:23.785Z,57.64
2022-12-08T19:51:51.077Z,57.54
2022-12-08T19:54:18.346Z,57.53
2022-12-08T19:56:45.670Z,57.49
2022-12-08T19:59:12.884Z,57.47
2022-12-08T20:01:40.142Z,57.78
2022-12-08T20:04:07.752Z,57.79
2022-12-08T20:06:34.989Z,57.71
2022-12-08T20:09:02.202Z,57.66
2022-12-08T20:11:29.604Z,57.77
2022-12-08T20:13:56.830Z,57.36
2022-12-08T20:16:24.292Z,57.67
2022-12-08T20:18:52.097Z,57.86
2022-12-08T20:21:19.683Z,57.60
2022-12-08T20:23:47.030Z,57.71
2022-12-08T20:26:14.417Z,57.83
2022-12-08T20:28:41.711Z,58.21
2022-12-08T20:31:20.210Z,57.99
2022-12-08T20:33:48.561Z,57.69
2022-12-08T20:36:18.560Z,57.74
2022-12-08T20:38:47.091Z,57.74
2022-12-08T20:41:15.299Z,57.75
2022-12-08T20:43:47.828Z,57.96
2022-12-08T20:46:18.181Z,58.12
2022-12-08T20:48:45.537Z,58.01
2022-12-08T20:51:19.410Z,57.82
2022-12-08T20:53:47.548Z,57.53
2022-12-08T20:56:22.014Z,57.95
2022-12-08T20:58:51.039Z,57.81
2022-12-08T21:01:22.665Z,57.74
2022-12-08T21:03:51.265Z,57.65
2022-12-08T21:06:23.412Z,57.53
2022-12-08T21:08:52.129Z,57.33
2022-12-08T21:11:19.777Z,57.38
2022-12-08T21:13:47.592Z,57.91
2022-12-08T21:16:16.048Z,58.06
2022-12-08T21:18:43.476Z,57.69
2022-12-08T21:21:14.457Z,57.83
2022-12-08T21:23:43.821Z,57.57
2022-12-08T21:26:21.108Z,57.67
2022-12-08T21:28:48.839Z,57.35
2022-12-08T21:31:19.906Z,57.04
2022-12-08T21:33:48.902Z,57.15
2022-12-08T21:36:21.343Z,56.99
2022-12-08T21:38:55.675Z,56.91
2022-12-08T21:41:25.296Z,56.91
2022-12-08T21:43:53.235Z,57.32
2022-12-08T21:46:20.744Z,56.90
2022-12-08T21:48:48.165Z,57.15
2022-12-08T21:51:15.475Z,56.93
2022-12-08T21:53:42.746Z,57.23
2022-12-08T21:56:10.689Z,57.12
2022-12-08T21:58:37.923Z,57.45
2022-12-08T22:01:10.745Z,57.64
2022-12-08T22:03:40.193Z,57.31
2022-12-08T22:06:13.859Z,57.24
2022-12-08T22:08:42.509Z,57.87
2022-12-08T22:11:11.733Z,57.59
2022-12-08T22:13:41.627Z,57.01
2022-12-08T22:16:12.623Z,57.16
2022-12-08T22:18:40.615Z,57.43
2022-12-08T22:21:11.304Z,57.76
2022-12-08T22:23:39.184Z,57.57
2022-12-08T22:26:08.318Z,57.51
2022-12-08T22:28:40.285Z,57.74
2022-12-08T22:31:18.360Z,57.88
2022-12-08T22:33:45.650Z,57.61
2022-12-08T22:36:23.458Z,57.91
2022-12-08T22:38:51.934Z,57.25
2022-12-08T22:41:20.250Z,57.43
2022-12-08T22:43:48.057Z,57.39
2022-12-08T22:46:21.422Z,57.70
2022-12-08T22:48:49.639Z,57.34
2022-12-08T22:51:18.520Z,57.12
2022-12-08T22:53:46.814Z,57.26
2022-12-08T22:56:16.743Z,57.11
2022-12-08T22:58:45.037Z,57.05
2022-12-08T23:01:44.464Z,57.49
2022-12-08T23:04:17.521Z,57.20
2022-12-08T23:06:45.574Z,57.28
2022-12-08T23:09:13.038Z,57.86
2022-12-08T23:11:40.674Z,57.73
2022-12-08T23:14:07.928Z,57.85
2022-12-08T23:16:35.383Z,57.53
2022-12-08T23:19:02.708Z,57.72
2022-12-08T23:21:30.174Z,57.99
2022-12-08T23:23:57.368Z,57.66
2022-12-08T23:26:28.027Z,58.16
2022-12-08T23:28:56.886Z,57.80
2022-12-08T23:31:25.189Z,57.36
2022-12-08T23:33:53.374Z,57.20
2022-12-08T23:36:23.089Z,57.45
2022-12-08T23:38:50.441Z,57.61
2022-12-08T23:41:17.812Z,57.71
2022-12-08T23:43:50.720Z,57.91
2022-12-08T23:46:21.116Z,57.67
2022-12-08T23:48:49.131Z,58.27
2022-12-08T23:51:17.670Z,58.01
2022-12-08T23:53:46.354Z,58.28
2022-12-08T23:56:16.826Z,58.36
2022-12-08T23:58:45.077Z,58.19
